Time;durP1;ratioP1;P1;durP2;ratioP2;P2;SDS_P1;SDS_P2;PMS_P1;PMS_P2;Temp;Humidity;BMP_temperature;BMP_pressure;BME280_temperature;BME280_humidity;BME280_pressure;Samples;Min_cycle;Max_cycle;Signal;HPM_P1;HPM_P2
2023/01/10 00:00:42;;;;;;;;;4.00;2.25;;;;;10.49;74.69;101438.16;5018104;28;45336;-71
2023/01/10 00:03:09;;;;;;;;;6.50;6.50;;;;;10.59;74.86;101457.75;5022468;28;45485;-70
2023/01/10 00:05:37;;;;;;;;;5.00;5.00;;;;;10.49;74.82;101456.44;5021631;28;45529;-71
2023/01/10 00:08:04;;;;;;;;;9.50;9.00;;;;;10.22;74.81;101421.19;5023625;28;45408;-71
2023/01/10 00:10:31;;;;;;;;;5.75;5.00;;;;;10.40;75.15;101456.00;5023204;28;45700;-71
2023/01/10 00:15:41;;;;;;;;;5.25;4.50;;;;;10.37;74.96;101465.44;5018823;28;45581;-71
2023/01/10 00:18:06;;;;;;;;;7.00;6.00;;;;;10.32;74.96;101452.16;5021596;28;45664;-70
2023/01/10 00:20:32;;;;;;;;;3.25;3.00;;;;;10.35;74.67;101457.53;5020469;28;45813;-70
2023/01/10 00:22:58;;;;;;;;;6.67;3.67;;;;;10.16;74.66;101427.91;5001034;28;45669;-71
2023/01/10 00:25:24;;;;;;;;;2.00;2.00;;;;;10.30;74.49;101448.59;5017352;28;45397;-70
2023/01/10 00:28:26;;;;;;;;;3.00;2.00;;;;;10.29;74.77;101452.00;5021920;28;45489;-71
2023/01/10 00:30:53;;;;;;;;;2.00;2.00;;;;;10.27;74.78;101454.53;5019234;28;45479;-71
2023/01/10 00:33:19;;;;;;;;;3.25;3.00;;;;;10.17;74.83;101434.06;5020510;28;45921;-70
2023/01/10 00:35:46;;;;;;;;;1.67;1.00;;;;;10.23;74.48;101436.06;5021626;28;45668;-71
2023/01/10 00:38:12;;;;;;;;;1.00;1.00;;;;;10.24;74.38;101440.44;5019771;28;45458;-71
2023/01/10 00:40:37;;;;;;;;;1.00;1.00;;;;;9.94;74.59;101394.72;5022239;28;45477;-71
2023/01/10 00:45:47;;;;;;;;;0.67;0.33;;;;;10.00;75.04;101419.31;5022239;28;45393;-71
2023/01/10 00:48:14;;;;;;;;;1.00;0.00;;;;;10.05;75.23;101431.78;5023061;28;45312;-71
2023/01/10 00:50:39;;;;;;;;;2.00;1.25;;;;;9.79;75.29;101403.53;5022219;28;46319;-70
2023/01/10 00:53:05;;;;;;;;;2.00;2.00;;;;;9.94;75.60;101427.75;5017549;28;46057;-70
2023/01/10 00:55:32;;;;;;;;;3.00;2.00;;;;;9.91;75.87;101422.41;5023107;28;45489;-70
2023/01/10 00:57:57;;;;;;;;;1.33;1.33;;;;;9.85;75.92;101420.41;5021597;28;45542;-70
2023/01/10 01:00:23;;;;;;;;;2.00;1.33;;;;;9.82;75.91;101415.03;5021905;28;45344;-70
2023/01/10 01:02:50;;;;;;;;;4.00;3.00;;;;;9.76;76.20;101412.13;5023614;28;46250;-70
2023/01/10 01:05:16;;;;;;;;;3.00;1.00;;;;;9.78;76.34;101410.50;5019171;28;45485;-70
2023/01/10 01:07:42;;;;;;;;;1.00;1.00;;;;;9.81;76.10;101391.47;5019559;28;45403;-72
2023/01/10 01:10:26;;;;;;;;;3.00;3.00;;;;;9.63;75.98;101363.72;5020414;28;45365;-70
2023/01/10 01:13:05;;;;;;;;;3.00;3.00;;;;;9.70;75.67;101385.75;5020458;28;45427;-71
2023/01/10 01:15:33;;;;;;;;;6.75;4.75;;;;;9.70;75.77;101381.44;5019755;28;45339;-70
2023/01/10 01:17:59;;;;;;;;;6.00;5.00;;;;;9.67;75.99;101375.16;5021631;28;45246;-70
2023/01/10 01:20:25;;;;;;;;;3.00;2.00;;;;;9.65;75.95;101377.72;5022344;28;45577;-70
2023/01/10 01:22:50;;;;;;;;;5.00;4.00;;;;;9.63;75.73;101379.38;5018689;28;45531;-71
2023/01/10 01:25:16;;;;;;;;;5.00;4.75;;;;;9.52;75.76;101370.13;5020805;28;45475;-70
2023/01/10 01:27:41;;;;;;;;;2.50;1.50;;;;;9.55;75.93;101380.72;5000908;28;45485;-70
2023/01/10 01:30:09;;;;;;;;;4.25;4.00;;;;;9.47;76.05;101393.41;5022529;28;45953;-70
2023/01/10 01:32:34;;;;;;;;;3.00;2.00;;;;;9.28;75.86;101367.25;5020311;28;46556;-70
2023/01/10 01:35:00;;;;;;;;;5.00;4.75;;;;;9.44;75.80;101403.66;5022049;28;45586;-71
2023/01/10 01:37:26;;;;;;;;;2.25;2.00;;;;;9.43;76.02;101406.19;5018811;28;45414;-71
2023/01/10 01:39:51;;;;;;;;;7.50;5.00;;;;;9.42;75.84;101405.31;5019660;28;45521;-70
2023/01/10 01:42:28;;;;;;;;;2.50;2.50;;;;;9.44;76.12;101400.19;5022836;28;46022;-71
2023/01/10 01:45:08;;;;;;;;;4.00;3.00;;;;;9.48;76.39;101404.72;5019704;28;45581;-70
2023/01/10 01:47:42;;;;;;;;;5.00;3.00;;;;;9.37;76.06;101378.13;5022219;28;45472;-70
2023/01/10 01:50:17;;;;;;;;;1.00;1.00;;;;;9.54;75.68;101403.28;5019210;28;45308;-70
2023/01/10 01:52:42;;;;;;;;;2.00;2.00;;;;;9.60;76.02;101400.09;5020597;28;45486;-71
2023/01/10 01:55:09;;;;;;;;;2.00;2.00;;;;;9.62;75.76;101394.94;5018732;28;45531;-72
2023/01/10 01:57:36;;;;;;;;;4.75;2.00;;;;;9.66;75.30;101389.03;4999694;28;45559;-71
2023/01/10 02:00:04;;;;;;;;;2.00;2.00;;;;;9.48;75.22;101353.44;5021468;28;45852;-70
2023/01/10 02:02:40;;;;;;;;;2.75;2.00;;;;;9.72;75.00;101395.44;5021227;28;46406;-70
2023/01/10 02:05:09;;;;;;;;;2.50;1.00;;;;;9.76;74.83;101399.09;5020900;28;45406;-70
2023/01/10 02:07:37;;;;;;;;;2.50;1.50;;;;;9.65;74.87;101374.19;5016450;28;45780;-70
2023/01/10 02:10:06;;;;;;;;;1.50;1.00;;;;;9.81;74.74;101396.69;5018966;28;45483;-71
2023/01/10 02:12:32;;;;;;;;;2.00;1.50;;;;;9.82;74.45;101393.28;5021027;28;45594;-70
2023/01/10 02:14:58;;;;;;;;;1.75;1.00;;;;;9.81;74.26;101383.63;5021799;28;45759;-70
2023/01/10 02:17:24;;;;;;;;;2.00;2.00;;;;;9.65;74.57;101369.91;5021102;28;45603;-70
2023/01/10 02:19:52;;;;;;;;;2.00;1.00;;;;;9.69;74.81;101395.31;5019541;28;45514;-70
2023/01/10 02:22:46;;;;;;;;;0.67;0.67;;;;;9.57;75.21;101410.38;5017188;28;45467;-71
2023/01/10 02:25:51;;;;;;;;;0.00;0.00;;;;;9.47;75.84;101409.06;5015499;28;45902;-70
2023/01/10 02:28:46;;;;;;;;;1.00;0.67;;;;;9.39;75.90;101409.47;5014115;28;45598;-70
2023/01/10 02:31:14;;;;;;;;;2.67;1.00;;;;;9.34;75.96;101410.16;5015432;28;45519;-71
2023/01/10 02:33:43;;;;;;;;;3.50;3.00;;;;;9.30;76.18;101410.81;5015635;28;46021;-70
2023/01/10 02:36:36;;;;;;;;;3.00;2.00;;;;;9.25;76.52;101403.59;5016551;28;45526;-70
2023/01/10 02:39:01;;;;;;;;;1.75;1.50;;;;;9.19;76.49;101411.13;5013828;28;45384;-71
2023/01/10 02:41:40;;;;;;;;;3.00;2.25;;;;;9.12;76.60;101404.72;5015308;28;45396;-70
2023/01/10 02:44:26;;;;;;;;;4.00;3.00;;;;;9.04;76.92;101391.28;5019369;28;46218;-71
2023/01/10 02:46:52;;;;;;;;;6.25;3.00;;;;;8.99;77.19;101394.47;5026137;28;45826;-71
2023/01/10 02:49:18;;;;;;;;;4.75;3.00;;;;;8.90;77.41;101398.44;5015490;28;45606;-71
2023/01/10 02:51:43;;;;;;;;;5.25;3.25;;;;;8.87;77.58;101393.06;5033770;28;45219;-71
2023/01/10 02:54:17;;;;;;;;;1.25;1.00;;;;;8.87;77.36;101387.88;5030458;28;45346;-71
2023/01/10 02:57:01;;;;;;;;;3.00;3.00;;;;;8.99;77.47;101394.47;5027106;28;45792;-71
2023/01/10 02:59:43;;;;;;;;;3.00;2.25;;;;;9.04;76.91;101391.28;5019501;28;45340;-70
2023/01/10 03:02:20;;;;;;;;;6.00;3.00;;;;;9.07;76.46;101391.47;5029284;28;45379;-70
2023/01/10 03:05:05;;;;;;;;;3.00;2.50;;;;;9.06;76.72;101393.97;5028591;28;46274;-70
2023/01/10 03:07:36;;;;;;;;;2.00;1.00;;;;;9.06;77.02;101391.38;5021113;28;45543;-71
2023/01/10 03:10:33;;;;;;;;;1.00;1.00;;;;;9.05;76.89;101397.38;5033431;28;45556;-71
2023/01/10 03:13:13;;;;;;;;;1.25;1.00;;;;;9.03;77.02;101386.91;5022553;28;45653;-70
2023/01/10 03:15:41;;;;;;;;;0.33;0.00;;;;;9.04;77.08;101391.28;5033743;28;46647;-70
2023/01/10 03:18:17;;;;;;;;;0.67;0.00;;;;;9.05;77.13;101385.28;5039646;28;45572;-71
2023/01/10 03:20:46;;;;;;;;;2.00;1.00;;;;;9.06;76.95;101374.03;5039858;28;45380;-70
2023/01/10 03:23:15;;;;;;;;;1.00;1.00;;;;;9.03;76.77;101368.69;5025363;28;45222;-71
2023/01/10 03:25:43;;;;;;;;;3.00;1.00;;;;;8.99;76.52;101371.03;5035558;28;45600;-71
2023/01/10 03:28:18;;;;;;;;;1.00;1.00;;;;;8.94;76.19;101382.13;5019709;28;45423;-71
2023/01/10 03:30:51;;;;;;;;;2.25;1.75;;;;;8.55;76.29;101319.41;5020407;28;45379;-71
2023/01/10 03:33:26;;;;;;;;;0.67;0.00;;;;;8.84;76.32;101382.47;5019420;28;45321;-71
2023/01/10 03:36:21;;;;;;;;;1.00;0.00;;;;;8.62;77.47;101397.84;5006741;28;46210;-71
2023/01/10 03:38:54;;;;;;;;;1.00;1.00;;;;;8.46;77.96;101397.03;5019807;28;45415;-71
2023/01/10 03:41:46;;;;;;;;;1.00;0.00;;;;;8.42;77.87;101397.69;5038675;28;45356;-72
2023/01/10 03:47:10;;;;;;;;;1.00;0.00;;;;;8.44;77.68;101403.88;5035332;28;45908;-71
2023/01/10 03:49:39;;;;;;;;;3.00;0.00;;;;;8.38;78.75;101394.84;5026671;28;45527;-71
2023/01/10 03:52:07;;;;;;;;;1.00;1.00;;;;;8.19;78.33;101378.22;5028067;28;45412;-70
2023/01/10 03:54:32;;;;;;;;;1.00;1.00;;;;;8.26;78.54;101392.47;5035208;28;45307;-71
2023/01/10 03:56:58;;;;;;;;;1.00;0.75;;;;;8.26;78.26;101395.09;5017974;28;45534;-71
2023/01/10 03:59:26;;;;;;;;;0.00;0.00;;;;;8.24;78.43;101389.78;5019167;28;45388;-71
2023/01/10 04:01:53;;;;;;;;;0.00;0.00;;;;;8.22;78.40;101383.59;5019302;28;46784;-71
2023/01/10 04:04:19;;;;;;;;;2.00;1.00;;;;;8.01;78.58;101359.94;5019133;28;45407;-70
2023/01/10 04:06:44;;;;;;;;;1.25;1.00;;;;;8.22;78.55;101399.22;5018983;28;45960;-70
2023/01/10 04:09:10;;;;;;;;;4.00;4.00;;;;;8.17;79.22;101393.75;5027188;28;45528;-71
2023/01/10 04:11:36;;;;;;;;;2.25;2.25;;;;;8.19;79.04;101401.66;5035234;28;45445;-70
2023/01/10 04:14:01;;;;;;;;;2.00;1.00;;;;;8.18;78.95;101399.88;5019570;28;45454;-71
2023/01/10 04:16:27;;;;;;;;;0.75;0.00;;;;;8.16;79.01;101412.81;5034748;28;45941;-71
2023/01/10 04:18:52;;;;;;;;;0.00;0.00;;;;;8.14;79.08;101410.94;5018563;28;45444;-71
2023/01/10 04:21:18;;;;;;;;;2.00;1.00;;;;;8.12;78.82;101402.16;5036204;28;45536;-71
2023/01/10 04:23:43;;;;;;;;;2.00;1.25;;;;;8.08;78.90;101401.09;5032319;28;45565;-70
2023/01/10 04:26:09;;;;;;;;;2.00;1.25;;;;;8.06;78.70;101400.13;5028990;28;45654;-70
2023/01/10 04:28:34;;;;;;;;;2.75;2.00;;;;;7.91;78.85;101378.47;5038095;28;45427;-71
2023/01/10 04:31:00;;;;;;;;;3.00;2.00;;;;;8.00;79.25;101404.06;5037316;28;46627;-70
2023/01/10 04:33:27;;;;;;;;;0.00;0.00;;;;;7.96;79.38;101397.84;5038345;28;45497;-71
2023/01/10 04:35:53;;;;;;;;;1.00;0.75;;;;;7.92;79.06;101394.16;5038422;28;45983;-71
2023/01/10 04:38:19;;;;;;;;;0.00;0.00;;;;;7.91;78.64;101379.34;5037109;28;46028;-71
2023/01/10 04:40:51;;;;;;;;;1.00;0.00;;;;;7.73;78.92;101363.63;5020454;28;45431;-70
2023/01/10 04:43:17;;;;;;;;;0.75;0.50;;;;;7.95;79.12;101389.09;5032802;28;45403;-70
2023/01/10 04:45:42;;;;;;;;;11.50;10.25;;;;;8.00;79.22;101394.59;5028455;28;46167;-71
2023/01/10 04:48:08;;;;;;;;;14.50;12.50;;;;;8.05;78.87;101385.28;5038090;28;45323;-70
2023/01/10 04:50:33;;;;;;;;;164.50;135.00;;;;;8.13;78.77;101393.53;5021972;28;45613;-70
2023/01/10 04:52:59;;;;;;;;;24.00;23.50;;;;;8.16;78.37;101391.97;5038063;28;45517;-71
2023/01/10 04:55:24;;;;;;;;;82.25;66.50;;;;;8.25;77.70;101391.56;5038501;28;46007;-70
2023/01/10 04:57:50;;;;;;;;;55.50;45.00;;;;;8.31;77.50;101378.88;5038447;28;45492;-70
2023/01/10 05:00:16;;;;;;;;;61.50;48.00;;;;;8.36;77.21;101387.81;5039206;28;45299;-70
2023/01/10 05:02:42;;;;;;;;;37.25;30.00;;;;;8.41;77.34;101394.97;5029099;28;45590;-70
2023/01/10 05:05:09;;;;;;;;;9.00;7.00;;;;;8.42;77.38;101387.28;5018391;28;45348;-70
2023/01/10 05:07:35;;;;;;;;;6.50;5.00;;;;;8.48;77.27;101384.13;5017929;28;45455;-71
2023/01/10 05:10:01;;;;;;;;;3.00;3.00;;;;;8.54;77.16;101381.81;5032409;28;45318;-70
2023/01/10 05:12:26;;;;;;;;;3.25;2.00;;;;;8.42;76.84;101339.53;5019519;28;45397;-71
2023/01/10 05:14:52;;;;;;;;;1.50;1.00;;;;;8.72;76.49;101377.53;5017563;28;46070;-71
2023/01/10 05:17:17;;;;;;;;;2.00;1.50;;;;;8.59;76.31;101336.06;5028167;28;45431;-71
2023/01/10 05:19:43;;;;;;;;;3.00;3.00;;;;;8.88;75.68;101368.78;5037379;28;45560;-71
2023/01/10 05:22:08;;;;;;;;;8.00;7.75;;;;;8.93;75.28;101364.72;5022074;28;45452;-70
2023/01/10 05:24:34;;;;;;;;;2.00;2.00;;;;;9.00;75.39;101372.84;5031737;28;45922;-71
2023/01/10 05:26:59;;;;;;;;;2.75;2.00;;;;;9.07;75.21;101364.47;5028049;28;45502;-71
2023/01/10 05:29:25;;;;;;;;;2.00;1.75;;;;;9.11;74.86;101375.16;5037935;28;45521;-71
2023/01/10 05:31:50;;;;;;;;;2.50;2.50;;;;;9.11;74.67;101366.41;5022098;28;45525;-70
2023/01/10 05:34:16;;;;;;;;;2.00;2.00;;;;;9.09;74.43;101362.84;5037987;28;45815;-71
2023/01/10 05:36:41;;;;;;;;;1.00;0.00;;;;;9.08;74.42;101364.56;5038213;28;45483;-70
2023/01/10 05:39:07;;;;;;;;;1.75;0.00;;;;;9.05;74.38;101367.03;5030028;28;45210;-70
2023/01/10 05:41:33;;;;;;;;;1.00;0.00;;;;;9.01;74.21;101374.59;5018469;28;45377;-70
2023/01/10 05:43:58;;;;;;;;;1.00;1.00;;;;;8.99;73.89;101373.63;5020387;28;45572;-71
2023/01/10 05:46:24;;;;;;;;;2.00;1.00;;;;;8.95;74.32;101383.00;5029024;28;45554;-71
2023/01/10 05:48:51;;;;;;;;;2.25;2.00;;;;;8.94;74.08;101394.25;5024846;28;45559;-71
2023/01/10 05:51:17;;;;;;;;;2.50;2.00;;;;;8.94;73.97;101389.06;5037913;28;45341;-71
2023/01/10 05:53:42;;;;;;;;;1.25;1.00;;;;;8.92;74.08;101378.53;5022326;28;46161;-70
2023/01/10 05:56:09;;;;;;;;;1.25;1.00;;;;;8.90;73.93;101379.28;5036235;28;45420;-71
2023/01/10 05:58:34;;;;;;;;;1.00;0.00;;;;;8.87;73.78;101374.84;5028557;28;45458;-70
2023/01/10 06:01:00;;;;;;;;;2.50;2.00;;;;;8.82;73.93;101362.38;5026935;28;45463;-70
2023/01/10 06:03:26;;;;;;;;;2.50;1.00;;;;;8.84;73.92;101374.66;5015600;28;46006;-70
2023/01/10 06:05:53;;;;;;;;;2.00;1.00;;;;;8.61;73.37;101341.34;5016955;28;45466;-70
2023/01/10 06:08:18;;;;;;;;;2.00;1.00;;;;;8.87;74.06;101382.66;5017154;28;45439;-70
2023/01/10 06:10:44;;;;;;;;;1.00;1.00;;;;;8.91;73.73;101388.88;5033462;28;45519;-70
2023/01/10 06:13:10;;;;;;;;;2.00;1.00;;;;;8.05;73.60;101242.19;5016281;28;45624;-70
2023/01/10 06:15:36;;;;;;;;;1.00;1.00;;;;;8.94;73.27;101400.38;5018316;28;45333;-70
2023/01/10 06:18:02;;;;;;;;;0.50;0.50;;;;;8.93;73.11;101393.38;5016454;28;45603;-71
2023/01/10 06:20:28;;;;;;;;;1.50;1.00;;;;;8.86;72.95;101386.06;5018993;28;45501;-70
2023/01/10 06:22:53;;;;;;;;;0.50;0.50;;;;;8.89;74.00;101407.06;5016192;28;45414;-71
2023/01/10 06:25:19;;;;;;;;;2.25;1.00;;;;;8.87;73.54;101408.72;5017739;28;45525;-70
2023/01/10 06:27:45;;;;;;;;;2.00;1.00;;;;;8.73;73.51;101389.78;5016447;28;45508;-70
2023/01/10 06:30:12;;;;;;;;;1.00;1.00;;;;;8.81;73.43;101402.28;5018039;28;45512;-70
2023/01/10 06:32:39;;;;;;;;;1.00;1.00;;;;;8.76;73.19;101394.22;5017091;28;45407;-71
2023/01/10 06:35:05;;;;;;;;;3.25;1.00;;;;;8.73;73.38;101399.28;5016181;28;45435;-71
2023/01/10 06:37:31;;;;;;;;;1.00;1.00;;;;;8.60;73.35;101389.06;5015775;28;45444;-70
2023/01/10 06:39:57;;;;;;;;;2.00;1.00;;;;;8.55;73.56;101394.00;5016973;28;45506;-71
2023/01/10 06:42:23;;;;;;;;;3.25;1.50;;;;;8.53;73.72;101398.25;5015328;28;46103;-71
2023/01/10 06:44:48;;;;;;;;;1.50;0.25;;;;;8.48;74.42;101397.13;5014151;28;45586;-72
2023/01/10 06:47:14;;;;;;;;;2.00;1.00;;;;;8.43;74.47;101398.59;5015065;28;45843;-71
2023/01/10 06:49:39;;;;;;;;;0.50;0.00;;;;;8.39;74.64;101394.91;5016606;28;45809;-68
2023/01/10 06:52:05;;;;;;;;;0.00;0.00;;;;;8.39;74.50;101399.22;5018921;28;46231;-71
2023/01/10 06:54:30;;;;;;;;;1.00;0.00;;;;;8.28;74.91;101383.03;5015963;28;45388;-71
2023/01/10 06:56:56;;;;;;;;;3.75;3.25;;;;;8.37;74.92;101393.91;5016914;28;45495;-71
2023/01/10 06:59:21;;;;;;;;;19.25;17.50;;;;;8.36;74.71;101399.97;5016396;28;45455;-69
2023/01/10 07:01:47;;;;;;;;;10.75;6.00;;;;;8.30;74.78;101387.50;5016155;28;45857;-70
2023/01/10 07:04:13;;;;;;;;;9.75;8.00;;;;;8.36;75.06;101400.84;5014629;28;45566;-70
2023/01/10 07:06:39;;;;;;;;;3.00;1.50;;;;;8.45;74.92;101412.59;5015636;28;45376;-71
2023/01/10 07:09:05;;;;;;;;;2.00;2.00;;;;;8.44;75.01;101408.22;5016372;28;45415;-70
2023/01/10 07:11:31;;;;;;;;;4.75;4.25;;;;;8.24;74.33;101366.38;5015551;28;46100;-71
2023/01/10 07:13:59;;;;;;;;;3.00;3.00;;;;;8.44;74.49;101397.78;5014991;28;45454;-71
2023/01/10 07:16:25;;;;;;;;;0.00;0.00;;;;;8.42;73.91;101384.69;5015643;28;45416;-70
2023/01/10 07:18:51;;;;;;;;;2.00;0.75;;;;;8.38;73.08;101367.09;5017561;28;45587;-70
2023/01/10 07:21:18;;;;;;;;;1.00;0.50;;;;;8.53;72.88;101391.34;5014994;28;45541;-71
2023/01/10 07:23:47;;;;;;;;;2.00;2.00;;;;;8.51;72.32;101390.34;5015716;28;45517;-71
2023/01/10 07:26:16;;;;;;;;;3.50;2.00;;;;;8.48;72.35;101397.13;5012664;28;45368;-71
2023/01/10 07:28:43;;;;;;;;;3.50;2.75;;;;;8.47;72.19;101401.44;5018291;28;45473;-71
2023/01/10 07:31:09;;;;;;;;;3.75;2.00;;;;;8.48;71.56;101398.03;5014902;28;46224;-71
2023/01/10 07:33:34;;;;;;;;;1.25;1.00;;;;;8.45;71.31;101390.03;5017381;28;45383;-71
2023/01/10 07:36:00;;;;;;;;;3.00;2.00;;;;;8.29;71.95;101372.69;5014998;28;45676;-71
2023/01/10 07:38:26;;;;;;;;;1.25;1.25;;;;;8.43;72.02;101403.78;5019371;28;45631;-71
2023/01/10 07:40:51;;;;;;;;;2.25;2.00;;;;;8.28;72.14;101378.72;5027832;28;45610;-71
2023/01/10 07:43:17;;;;;;;;;2.00;2.00;;;;;8.26;72.39;101382.97;5014715;28;45539;-70
2023/01/10 07:45:42;;;;;;;;;2.75;2.00;;;;;8.23;72.01;101374.97;5014855;28;46068;-70
2023/01/10 07:48:08;;;;;;;;;2.50;2.25;;;;;8.23;72.29;101379.28;5031415;28;45556;-70
2023/01/10 07:50:35;;;;;;;;;9.00;9.00;;;;;8.26;72.40;101379.47;5018909;28;45501;-70
2023/01/10 07:53:02;;;;;;;;;16.75;15.00;;;;;8.44;71.74;101419.50;5026890;28;45465;-70
2023/01/10 07:55:29;;;;;;;;;39.50;35.50;;;;;8.47;71.78;101422.25;5034560;28;46013;-69
2023/01/10 07:57:55;;;;;;;;;15.00;14.25;;;;;8.48;71.69;101421.47;5015511;28;45447;-70
2023/01/10 08:00:20;;;;;;;;;20.00;17.75;;;;;8.59;71.73;101434.13;5017137;28;45892;-70
2023/01/10 08:02:46;;;;;;;;;9.25;7.75;;;;;8.66;70.98;101429.34;5014780;28;45347;-69
2023/01/10 08:05:13;;;;;;;;;16.75;14.75;;;;;8.64;70.45;101417.94;5011980;28;45576;-69
2023/01/10 08:07:39;;;;;;;;;14.25;11.75;;;;;8.84;70.22;101431.09;5015819;28;45521;-70
2023/01/10 08:10:05;;;;;;;;;12.50;9.75;;;;;8.95;68.95;101436.03;5014612;28;45960;-69
2023/01/10 08:12:31;;;;;;;;;7.25;6.00;;;;;9.02;69.11;101439.84;5012745;28;45386;-71
2023/01/10 08:14:57;;;;;;;;;3.25;3.00;;;;;9.03;68.44;101440.72;5010753;28;45238;-71
2023/01/10 08:17:23;;;;;;;;;4.00;4.00;;;;;8.86;68.18;101417.31;5013769;28;45533;-70
2023/01/10 08:19:48;;;;;;;;;3.25;2.00;;;;;9.01;68.26;101439.75;5015812;28;45922;-70
2023/01/10 08:22:14;;;;;;;;;5.00;4.75;;;;;9.02;68.62;101449.38;5019053;28;46022;-70
2023/01/10 08:24:39;;;;;;;;;3.00;3.00;;;;;9.04;68.58;101447.75;5001985;28;45723;-70
2023/01/10 08:27:05;;;;;;;;;2.00;2.00;;;;;9.08;68.59;101449.69;5034054;28;45453;-71
2023/01/10 08:29:31;;;;;;;;;7.50;7.25;;;;;9.09;68.43;101431.53;5014256;28;45491;-70
2023/01/10 08:31:56;;;;;;;;;3.00;2.00;;;;;9.07;68.10;101406.19;5012633;28;45482;-70
2023/01/10 08:34:22;;;;;;;;;4.00;3.75;;;;;9.18;68.23;101415.44;5010886;28;46830;-70
2023/01/10 08:36:52;;;;;;;;;4.00;3.00;;;;;9.21;67.77;101415.59;5012306;28;45557;-71
2023/01/10 08:39:21;;;;;;;;;3.00;2.00;;;;;9.35;67.91;101430.22;5011033;28;46054;-70
2023/01/10 08:41:47;;;;;;;;;3.00;3.00;;;;;9.38;67.15;101420.75;5031547;28;45392;-70
2023/01/10 08:44:14;;;;;;;;;1.25;1.00;;;;;9.39;66.92;101417.31;5021528;28;45423;-70
2023/01/10 08:46:40;;;;;;;;;5.00;3.25;;;;;9.46;66.86;101428.09;5015839;28;45804;-68
2023/01/10 08:49:06;;;;;;;;;3.25;3.00;;;;;9.48;66.75;101423.84;5017850;28;45976;-69
2023/01/10 08:51:31;;;;;;;;;3.00;3.00;;;;;9.59;65.90;101423.47;5025155;28;45550;-70
2023/01/10 08:53:57;;;;;;;;;1.50;1.50;;;;;9.62;65.65;101421.03;4969864;28;47108;-69
2023/01/10 08:56:22;;;;;;;;;1.67;0.67;;;;;9.64;66.24;101420.28;5021857;28;45351;-68
2023/01/10 08:58:48;;;;;;;;;0.00;0.00;;;;;9.48;66.38;101378.63;5001604;28;46218;-69
2023/01/10 09:01:13;;;;;;;;;1.50;1.00;;;;;9.74;66.70;101424.22;5007404;28;45466;-67
2023/01/10 09:03:39;;;;;;;;;0.00;0.00;;;;;9.80;66.79;101418.41;4996794;28;45581;-69
2023/01/10 09:06:05;;;;;;;;;1.00;1.00;;;;;9.83;66.21;101418.53;4997878;28;45434;-68
2023/01/10 09:08:31;;;;;;;;;2.25;2.00;;;;;9.93;65.53;101426.00;4998923;28;45874;-68
2023/01/10 09:11:00;;;;;;;;;26.25;25.50;;;;;10.01;66.15;101424.63;4997477;28;45504;-68
2023/01/10 09:13:26;;;;;;;;;2.25;1.50;;;;;10.08;65.69;101423.19;5008484;28;45366;-68
2023/01/10 09:15:52;;;;;;;;;1.00;1.00;;;;;10.12;65.84;101412.94;5017273;28;45724;-69
2023/01/10 09:18:18;;;;;;;;;2.50;2.00;;;;;10.28;65.90;101424.09;5004472;28;46102;-70
2023/01/10 09:20:44;;;;;;;;;2.00;2.00;;;;;10.37;64.88;101418.44;4998186;28;45350;-70
2023/01/10 09:23:17;;;;;;;;;8.75;8.00;;;;;10.40;63.96;101415.94;4998240;28;45672;-70
2023/01/10 09:25:44;;;;;;;;;7.50;6.00;;;;;10.57;64.11;101416.72;4998745;28;45589;-70
2023/01/10 09:28:10;;;;;;;;;4.50;3.00;;;;;10.70;63.25;101421.63;4998331;28;46141;-70
2023/01/10 09:30:36;;;;;;;;;3.50;3.00;;;;;10.93;62.15;101420.00;4998482;28;45487;-70
2023/01/10 09:33:03;;;;;;;;;13.50;12.50;;;;;11.90;60.57;101411.75;4998776;28;45277;-71
2023/01/10 09:35:29;;;;;;;;;3.50;3.00;;;;;12.98;57.98;101414.75;4999050;28;45467;-71
2023/01/10 09:37:57;;;;;;;;;6.25;6.00;;;;;13.87;56.21;101405.41;4998106;28;45943;-71
2023/01/10 09:40:45;;;;;;;;;11.75;10.50;;;;;14.68;55.67;101400.69;4998071;28;45781;-70
2023/01/10 09:43:32;;;;;;;;;13.00;12.25;;;;;15.32;52.16;101399.72;4998295;28;45434;-70
2023/01/10 09:46:38;;;;;;;;;7.67;7.67;;;;;15.74;49.02;101376.09;4998906;28;45358;-70
2023/01/10 09:49:25;;;;;;;;;14.50;13.75;;;;;16.27;47.94;101390.44;4997945;28;46234;-71
2023/01/10 09:51:55;;;;;;;;;13.67;13.33;;;;;16.59;49.22;101391.91;4998107;28;45651;-71
2023/01/10 09:54:38;;;;;;;;;15.00;13.67;;;;;16.82;47.79;101390.63;4998186;28;45473;-71
2023/01/10 09:57:04;;;;;;;;;16.67;14.33;;;;;16.87;45.80;101354.66;4998178;28;45428;-71
2023/01/10 09:59:40;;;;;;;;;13.00;12.67;;;;;17.25;45.30;101382.53;4998020;28;45506;-71
2023/01/10 10:02:27;;;;;;;;;17.25;16.50;;;;;17.15;45.20;101380.59;4998057;28;45486;-71
2023/01/10 10:05:12;;;;;;;;;9.67;9.33;;;;;16.88;45.57;101385.44;4998058;28;45269;-70
2023/01/10 10:07:38;;;;;;;;;12.33;12.00;;;;;16.69;45.06;101383.28;4997621;28;45498;-71
2023/01/10 10:10:06;;;;;;;;;10.00;9.33;;;;;16.71;44.65;101392.13;4997745;28;45542;-71
2023/01/10 10:13:03;;;;;;;;;12.33;10.33;;;;;16.93;44.24;101387.28;4998138;28;45279;-71
2023/01/10 10:15:56;;;;;;;;;7.00;6.00;;;;;17.07;44.73;101377.84;4997226;28;45283;-71
2023/01/10 10:18:52;;;;;;;;;8.33;7.00;;;;;17.30;44.73;101378.22;4997337;28;45310;-70
2023/01/10 10:21:26;;;;;;;;;10.33;7.00;;;;;17.44;44.24;101371.38;4997402;28;45475;-70
2023/01/10 10:24:26;;;;;;;;;5.67;5.00;;;;;17.55;43.47;101371.56;4997614;28;45225;-71
2023/01/10 10:27:18;;;;;;;;;5.00;5.00;;;;;17.60;44.80;101356.63;4997614;28;45309;-71
2023/01/10 10:30:11;;;;;;;;;2.33;2.33;;;;;17.79;42.86;101375.41;4997932;28;45555;-70
2023/01/10 10:32:55;;;;;;;;;3.00;3.00;;;;;17.89;43.64;101377.34;4997454;28;46366;-70
2023/01/10 10:35:29;;;;;;;;;4.67;3.00;;;;;17.94;42.47;101372.97;4997518;28;45293;-71
2023/01/10 10:38:02;;;;;;;;;3.00;3.00;;;;;18.01;41.76;101373.97;4997451;28;45222;-71
2023/01/10 10:40:35;;;;;;;;;1.33;1.33;;;;;17.94;41.87;101370.34;4996386;28;45404;-71
2023/01/10 10:43:13;;;;;;;;;5.33;5.00;;;;;18.06;42.69;101367.88;4995852;28;46253;-70
2023/01/10 10:45:48;;;;;;;;;3.33;3.00;;;;;18.18;41.72;101369.75;4997030;28;45331;-71
2023/01/10 10:48:33;;;;;;;;;2.00;2.00;;;;;18.27;41.41;101358.41;4997262;28;45456;-71
2023/01/10 10:51:04;;;;;;;;;2.67;2.67;;;;;18.33;40.49;101347.91;4997389;28;45280;-71
2023/01/10 10:53:32;;;;;;;;;2.67;2.67;;;;;18.36;40.45;101349.69;4997011;28;46209;-71
2023/01/10 10:55:59;;;;;;;;;3.00;3.00;;;;;18.42;41.69;101345.38;4996926;28;45355;-72
2023/01/10 10:58:24;;;;;;;;;2.00;2.00;;;;;18.47;40.93;101340.09;4997210;28;45398;-71
2023/01/10 11:00:51;;;;;;;;;2.67;2.00;;;;;18.47;40.64;101342.75;4997371;28;45349;-72
2023/01/10 11:03:48;;;;;;;;;3.33;3.00;;;;;18.49;40.49;101336.59;4997001;28;45311;-72
2023/01/10 11:06:16;;;;;;;;;4.33;3.00;;;;;18.45;39.78;101334.78;4997115;28;45479;-72
2023/01/10 11:08:44;;;;;;;;;1.00;1.00;;;;;18.38;40.54;101332.97;4996965;28;45530;-72
2023/01/10 11:11:20;;;;;;;;;3.33;3.00;;;;;18.40;39.64;101328.59;4997243;28;45371;-72
2023/01/10 11:13:58;;;;;;;;;2.00;2.00;;;;;18.45;40.08;101323.34;4996717;28;45523;-71
2023/01/10 11:16:28;;;;;;;;;4.00;3.00;;;;;18.49;40.67;101319.84;4997118;28;45317;-72
2023/01/10 11:19:21;;;;;;;;;1.00;1.00;;;;;18.55;40.03;101309.31;4997113;28;45320;-71
2023/01/10 11:21:54;;;;;;;;;0.33;0.33;;;;;18.60;40.06;101304.06;4996650;28;45332;-72
2023/01/10 11:24:25;;;;;;;;;3.33;2.00;;;;;18.64;40.52;101298.81;4996850;28;46635;-71
2023/01/10 11:26:51;;;;;;;;;2.00;2.00;;;;;18.69;40.10;101296.22;4997032;28;45420;-71
2023/01/10 11:29:58;;;;;;;;;4.00;4.00;;;;;18.64;40.03;101293.53;4999505;28;45394;-71
2023/01/10 11:32:37;;;;;;;;;1.00;1.00;;;;;18.55;40.47;101293.44;4999890;28;45237;-71
2023/01/10 11:35:16;;;;;;;;;1.00;1.00;;;;;18.53;40.67;101283.72;5000119;28;45382;-71
2023/01/10 11:37:41;;;;;;;;;2.00;1.00;;;;;18.40;41.69;101280.97;5000461;28;45256;-72
2023/01/10 11:40:24;;;;;;;;;2.33;1.00;;;;;18.46;41.75;101282.75;5000754;28;45315;-71
2023/01/10 11:42:55;;;;;;;;;0.67;0.67;;;;;18.45;40.96;101281.88;5000340;28;45515;-71
2023/01/10 11:45:25;;;;;;;;;2.00;1.00;;;;;18.50;42.06;101287.19;4999835;28;46210;-71
2023/01/10 11:48:17;;;;;;;;;1.33;0.00;;;;;18.50;42.17;101279.25;4999980;28;45554;-71
2023/01/10 11:50:49;;;;;;;;;0.67;0.67;;;;;18.54;42.44;101269.59;5000362;28;45360;-71